sensor_id;sensor_type;location;lat;lon;timestamp;P1;durP1;ratioP1;P2;durP2;ratioP2
57337;SDS011;43173;50.980;18.204;2023-07-31T00:01:41;5.90;;;2.70;;
57337;SDS011;43173;50.980;18.204;2023-07-31T00:04:06;4.80;;;3.10;;
57337;SDS011;43173;50.980;18.204;2023-07-31T00:06:32;6.00;;;3.20;;
57337;SDS011;43173;50.980;18.204;2023-07-31T00:08:58;5.80;;;3.50;;
57337;SDS011;43173;50.980;18.204;2023-07-31T00:11:23;4.70;;;3.30;;
57337;SDS011;43173;50.980;18.204;2023-07-31T00:13:49;5.80;;;3.60;;
57337;SDS011;43173;50.980;18.204;2023-07-31T00:16:14;6.00;;;3.70;;
57337;SDS011;43173;50.980;18.204;2023-07-31T00:18:40;7.20;;;3.80;;
57337;SDS011;43173;50.980;18.204;2023-07-31T00:21:06;5.00;;;3.90;;
57337;SDS011;43173;50.980;18.204;2023-07-31T00:23:31;4.50;;;3.60;;
57337;SDS011;43173;50.980;18.204;2023-07-31T00:25:57;6.10;;;4.00;;
57337;SDS011;43173;50.980;18.204;2023-07-31T00:28:22;5.70;;;3.50;;
57337;SDS011;43173;50.980;18.204;2023-07-31T00:30:48;4.00;;;3.20;;
57337;SDS011;43173;50.980;18.204;2023-07-31T00:33:13;5.10;;;3.40;;
57337;SDS011;43173;50.980;18.204;2023-07-31T00:35:39;4.00;;;3.10;;
57337;SDS011;43173;50.980;18.204;2023-07-31T00:38:05;6.70;;;3.90;;
57337;SDS011;43173;50.980;18.204;2023-07-31T00:40:34;5.60;;;4.10;;
57337;SDS011;43173;50.980;18.204;2023-07-31T00:43:01;6.10;;;3.10;;
57337;SDS011;43173;50.980;18.204;2023-07-31T00:45:26;8.40;;;3.30;;
57337;SDS011;43173;50.980;18.204;2023-07-31T00:47:54;4.10;;;3.10;;
57337;SDS011;43173;50.980;18.204;2023-07-31T00:50:19;9.50;;;3.50;;
57337;SDS011;43173;50.980;18.204;2023-07-31T00:52:45;6.00;;;3.50;;
57337;SDS011;43173;50.980;18.204;2023-07-31T00:55:11;4.90;;;3.40;;
57337;SDS011;43173;50.980;18.204;2023-07-31T00:57:36;5.70;;;3.10;;
57337;SDS011;43173;50.980;18.204;2023-07-31T01:00:04;6.00;;;3.30;;
57337;SDS011;43173;50.980;18.204;2023-07-31T01:02:30;5.80;;;3.20;;
57337;SDS011;43173;50.980;18.204;2023-07-31T01:04:56;4.50;;;3.50;;
57337;SDS011;43173;50.980;18.204;2023-07-31T01:12:45;5.70;;;3.60;;
57337;SDS011;43173;50.980;18.204;2023-07-31T01:15:12;6.10;;;3.40;;
57337;SDS011;43173;50.980;18.204;2023-07-31T01:17:39;8.20;;;3.90;;
57337;SDS011;43173;50.980;18.204;2023-07-31T01:31:07;5.70;;;3.50;;
57337;SDS011;43173;50.980;18.204;2023-07-31T01:33:33;7.40;;;4.30;;
57337;SDS011;43173;50.980;18.204;2023-07-31T01:36:00;6.20;;;3.70;;
57337;SDS011;43173;50.980;18.204;2023-07-31T01:38:26;5.90;;;3.30;;
57337;SDS011;43173;50.980;18.204;2023-07-31T01:40:52;5.70;;;3.60;;
57337;SDS011;43173;50.980;18.204;2023-07-31T01:43:19;6.60;;;3.90;;
57337;SDS011;43173;50.980;18.204;2023-07-31T01:45:45;5.70;;;3.50;;
57337;SDS011;43173;50.980;18.204;2023-07-31T01:48:10;7.30;;;3.30;;
57337;SDS011;43173;50.980;18.204;2023-07-31T01:50:36;6.10;;;3.60;;
57337;SDS011;43173;50.980;18.204;2023-07-31T01:53:01;7.50;;;4.00;;
57337;SDS011;43173;50.980;18.204;2023-07-31T01:55:27;8.10;;;3.80;;
57337;SDS011;43173;50.980;18.204;2023-07-31T01:57:53;8.10;;;3.90;;
57337;SDS011;43173;50.980;18.204;2023-07-31T02:00:19;6.30;;;3.60;;
57337;SDS011;43173;50.980;18.204;2023-07-31T02:02:45;10.20;;;3.50;;
57337;SDS011;43173;50.980;18.204;2023-07-31T02:05:11;5.70;;;4.10;;
57337;SDS011;43173;50.980;18.204;2023-07-31T02:07:36;5.10;;;4.40;;
57337;SDS011;43173;50.980;18.204;2023-07-31T02:10:02;11.40;;;8.90;;
57337;SDS011;43173;50.980;18.204;2023-07-31T02:12:28;9.90;;;8.70;;
57337;SDS011;43173;50.980;18.204;2023-07-31T02:14:56;10.50;;;7.10;;
57337;SDS011;43173;50.980;18.204;2023-07-31T02:17:21;6.80;;;4.10;;
57337;SDS011;43173;50.980;18.204;2023-07-31T02:19:49;5.70;;;3.90;;
57337;SDS011;43173;50.980;18.204;2023-07-31T02:22:14;6.30;;;3.30;;
57337;SDS011;43173;50.980;18.204;2023-07-31T02:24:40;5.30;;;3.80;;
57337;SDS011;43173;50.980;18.204;2023-07-31T02:27:05;7.80;;;3.50;;
57337;SDS011;43173;50.980;18.204;2023-07-31T02:29:31;5.60;;;3.50;;
57337;SDS011;43173;50.980;18.204;2023-07-31T02:31:57;4.60;;;3.10;;
57337;SDS011;43173;50.980;18.204;2023-07-31T02:34:22;6.40;;;3.60;;
57337;SDS011;43173;50.980;18.204;2023-07-31T02:36:48;4.80;;;3.40;;
57337;SDS011;43173;50.980;18.204;2023-07-31T02:39:14;5.10;;;3.50;;
57337;SDS011;43173;50.980;18.204;2023-07-31T02:41:39;4.50;;;3.50;;
57337;SDS011;43173;50.980;18.204;2023-07-31T02:44:05;7.90;;;3.80;;
57337;SDS011;43173;50.980;18.204;2023-07-31T02:46:30;5.60;;;3.60;;
57337;SDS011;43173;50.980;18.204;2023-07-31T02:48:56;7.10;;;3.80;;
57337;SDS011;43173;50.980;18.204;2023-07-31T02:51:22;5.50;;;3.60;;
57337;SDS011;43173;50.980;18.204;2023-07-31T02:53:48;7.40;;;3.60;;
57337;SDS011;43173;50.980;18.204;2023-07-31T02:56:13;6.40;;;3.30;;
57337;SDS011;43173;50.980;18.204;2023-07-31T02:58:39;4.30;;;3.40;;
57337;SDS011;43173;50.980;18.204;2023-07-31T03:01:05;8.90;;;3.60;;
57337;SDS011;43173;50.980;18.204;2023-07-31T03:03:30;5.50;;;3.80;;
57337;SDS011;43173;50.980;18.204;2023-07-31T03:05:56;6.60;;;4.00;;
57337;SDS011;43173;50.980;18.204;2023-07-31T03:08:22;8.00;;;4.90;;
57337;SDS011;43173;50.980;18.204;2023-07-31T03:10:47;9.80;;;6.00;;
57337;SDS011;43173;50.980;18.204;2023-07-31T03:15:44;12.50;;;6.80;;
57337;SDS011;43173;50.980;18.204;2023-07-31T03:18:10;6.10;;;4.40;;
57337;SDS011;43173;50.980;18.204;2023-07-31T03:20:36;4.60;;;3.60;;
57337;SDS011;43173;50.980;18.204;2023-07-31T03:23:01;4.90;;;3.60;;
57337;SDS011;43173;50.980;18.204;2023-07-31T03:25:27;7.70;;;3.50;;
57337;SDS011;43173;50.980;18.204;2023-07-31T03:27:52;7.00;;;3.50;;
57337;SDS011;43173;50.980;18.204;2023-07-31T03:30:18;7.70;;;4.10;;
57337;SDS011;43173;50.980;18.204;2023-07-31T03:32:44;6.40;;;3.80;;
57337;SDS011;43173;50.980;18.204;2023-07-31T03:35:09;6.70;;;3.80;;
57337;SDS011;43173;50.980;18.204;2023-07-31T03:37:35;8.20;;;4.00;;
57337;SDS011;43173;50.980;18.204;2023-07-31T03:40:01;6.30;;;3.80;;
57337;SDS011;43173;50.980;18.204;2023-07-31T03:42:27;5.40;;;4.10;;
57337;SDS011;43173;50.980;18.204;2023-07-31T03:44:53;5.80;;;3.80;;
57337;SDS011;43173;50.980;18.204;2023-07-31T03:47:19;6.50;;;4.10;;
57337;SDS011;43173;50.980;18.204;2023-07-31T03:49:46;6.00;;;4.40;;
57337;SDS011;43173;50.980;18.204;2023-07-31T03:52:12;7.10;;;4.00;;
57337;SDS011;43173;50.980;18.204;2023-07-31T03:54:37;5.80;;;4.20;;
57337;SDS011;43173;50.980;18.204;2023-07-31T03:57:03;6.40;;;3.70;;
57337;SDS011;43173;50.980;18.204;2023-07-31T03:59:29;5.60;;;4.30;;
57337;SDS011;43173;50.980;18.204;2023-07-31T04:01:55;7.10;;;4.30;;
57337;SDS011;43173;50.980;18.204;2023-07-31T04:04:20;5.80;;;3.60;;
57337;SDS011;43173;50.980;18.204;2023-07-31T04:06:46;4.30;;;3.20;;
57337;SDS011;43173;50.980;18.204;2023-07-31T04:09:12;7.30;;;3.90;;
57337;SDS011;43173;50.980;18.204;2023-07-31T04:11:37;7.00;;;3.30;;
57337;SDS011;43173;50.980;18.204;2023-07-31T04:14:04;6.70;;;3.50;;
57337;SDS011;43173;50.980;18.204;2023-07-31T04:16:30;4.50;;;3.30;;
57337;SDS011;43173;50.980;18.204;2023-07-31T04:18:56;5.80;;;3.40;;
57337;SDS011;43173;50.980;18.204;2023-07-31T04:21:21;5.60;;;3.40;;
57337;SDS011;43173;50.980;18.204;2023-07-31T04:23:47;4.80;;;3.20;;
57337;SDS011;43173;50.980;18.204;2023-07-31T04:26:13;5.80;;;3.30;;
57337;SDS011;43173;50.980;18.204;2023-07-31T04:28:39;7.50;;;3.30;;
57337;SDS011;43173;50.980;18.204;2023-07-31T04:31:04;5.00;;;2.90;;
57337;SDS011;43173;50.980;18.204;2023-07-31T04:33:30;5.10;;;3.30;;
57337;SDS011;43173;50.980;18.204;2023-07-31T04:35:56;7.70;;;3.40;;
57337;SDS011;43173;50.980;18.204;2023-07-31T04:38:21;6.60;;;3.50;;
57337;SDS011;43173;50.980;18.204;2023-07-31T04:40:48;6.70;;;3.10;;
57337;SDS011;43173;50.980;18.204;2023-07-31T04:43:14;5.40;;;3.30;;
57337;SDS011;43173;50.980;18.204;2023-07-31T04:45:42;5.00;;;3.00;;
57337;SDS011;43173;50.980;18.204;2023-07-31T04:48:10;4.30;;;3.10;;
57337;SDS011;43173;50.980;18.204;2023-07-31T04:50:35;6.60;;;2.90;;
57337;SDS011;43173;50.980;18.204;2023-07-31T04:53:01;5.70;;;2.70;;
57337;SDS011;43173;50.980;18.204;2023-07-31T04:55:27;9.50;;;3.10;;
57337;SDS011;43173;50.980;18.204;2023-07-31T04:57:53;7.30;;;2.80;;
57337;SDS011;43173;50.980;18.204;2023-07-31T05:00:18;4.60;;;2.90;;
57337;SDS011;43173;50.980;18.204;2023-07-31T05:02:44;3.00;;;2.50;;
57337;SDS011;43173;50.980;18.204;2023-07-31T05:05:09;6.10;;;3.10;;
57337;SDS011;43173;50.980;18.204;2023-07-31T05:07:35;5.80;;;2.70;;
57337;SDS011;43173;50.980;18.204;2023-07-31T05:10:00;7.10;;;2.80;;
57337;SDS011;43173;50.980;18.204;2023-07-31T05:12:26;5.40;;;2.70;;
57337;SDS011;43173;50.980;18.204;2023-07-31T05:14:52;6.70;;;3.10;;
57337;SDS011;43173;50.980;18.204;2023-07-31T05:17:17;5.70;;;2.80;;
57337;SDS011;43173;50.980;18.204;2023-07-31T05:19:43;5.90;;;3.10;;
57337;SDS011;43173;50.980;18.204;2023-07-31T05:22:09;4.80;;;2.70;;
57337;SDS011;43173;50.980;18.204;2023-07-31T05:24:34;6.80;;;3.10;;
57337;SDS011;43173;50.980;18.204;2023-07-31T05:27:00;7.50;;;3.00;;
57337;SDS011;43173;50.980;18.204;2023-07-31T05:29:26;4.90;;;3.00;;
57337;SDS011;43173;50.980;18.204;2023-07-31T05:31:51;9.00;;;3.20;;
57337;SDS011;43173;50.980;18.204;2023-07-31T05:34:17;6.30;;;2.90;;
57337;SDS011;43173;50.980;18.204;2023-07-31T05:36:42;6.70;;;2.80;;
57337;SDS011;43173;50.980;18.204;2023-07-31T05:39:08;6.30;;;3.00;;
57337;SDS011;43173;50.980;18.204;2023-07-31T05:41:34;4.90;;;2.70;;
57337;SDS011;43173;50.980;18.204;2023-07-31T05:44:00;6.40;;;2.90;;
57337;SDS011;43173;50.980;18.204;2023-07-31T05:46:26;8.60;;;2.50;;
57337;SDS011;43173;50.980;18.204;2023-07-31T05:48:52;6.90;;;2.80;;
57337;SDS011;43173;50.980;18.204;2023-07-31T05:51:18;8.40;;;2.80;;
57337;SDS011;43173;50.980;18.204;2023-07-31T05:53:43;5.00;;;2.50;;
57337;SDS011;43173;50.980;18.204;2023-07-31T05:56:09;5.00;;;2.00;;
57337;SDS011;43173;50.980;18.204;2023-07-31T05:58:34;4.80;;;2.40;;
57337;SDS011;43173;50.980;18.204;2023-07-31T06:01:00;5.50;;;2.30;;
57337;SDS011;43173;50.980;18.204;2023-07-31T06:03:25;4.00;;;2.50;;
57337;SDS011;43173;50.980;18.204;2023-07-31T06:05:51;7.80;;;2.20;;
57337;SDS011;43173;50.980;18.204;2023-07-31T06:08:17;6.50;;;2.40;;
57337;SDS011;43173;50.980;18.204;2023-07-31T06:10:42;5.90;;;1.80;;
57337;SDS011;43173;50.980;18.204;2023-07-31T06:13:08;8.70;;;2.70;;
57337;SDS011;43173;50.980;18.204;2023-07-31T06:15:34;4.40;;;2.20;;
57337;SDS011;43173;50.980;18.204;2023-07-31T06:17:59;5.50;;;2.10;;
57337;SDS011;43173;50.980;18.204;2023-07-31T06:20:28;6.80;;;2.70;;
57337;SDS011;43173;50.980;18.204;2023-07-31T06:22:54;5.30;;;2.30;;
57337;SDS011;43173;50.980;18.204;2023-07-31T06:25:19;4.40;;;2.00;;
57337;SDS011;43173;50.980;18.204;2023-07-31T06:27:45;5.30;;;2.20;;
57337;SDS011;43173;50.980;18.204;2023-07-31T06:30:11;5.10;;;2.40;;
57337;SDS011;43173;50.980;18.204;2023-07-31T06:32:37;3.50;;;1.70;;
57337;SDS011;43173;50.980;18.204;2023-07-31T06:35:03;5.60;;;1.90;;
57337;SDS011;43173;50.980;18.204;2023-07-31T06:37:29;6.90;;;2.50;;
57337;SDS011;43173;50.980;18.204;2023-07-31T06:39:54;7.70;;;2.40;;
57337;SDS011;43173;50.980;18.204;2023-07-31T06:42:21;6.70;;;2.10;;
57337;SDS011;43173;50.980;18.204;2023-07-31T06:44:46;6.20;;;2.30;;
57337;SDS011;43173;50.980;18.204;2023-07-31T06:47:12;3.90;;;2.20;;
57337;SDS011;43173;50.980;18.204;2023-07-31T06:49:38;5.30;;;2.00;;
57337;SDS011;43173;50.980;18.204;2023-07-31T06:52:03;6.60;;;2.20;;
57337;SDS011;43173;50.980;18.204;2023-07-31T06:54:30;6.80;;;2.00;;
57337;SDS011;43173;50.980;18.204;2023-07-31T06:56:56;5.00;;;2.20;;
57337;SDS011;43173;50.980;18.204;2023-07-31T06:59:21;5.40;;;2.20;;
57337;SDS011;43173;50.980;18.204;2023-07-31T07:01:47;5.50;;;1.90;;
57337;SDS011;43173;50.980;18.204;2023-07-31T07:04:13;4.90;;;1.90;;
57337;SDS011;43173;50.980;18.204;2023-07-31T07:06:39;4.80;;;1.70;;
57337;SDS011;43173;50.980;18.204;2023-07-31T07:09:05;7.60;;;1.80;;
57337;SDS011;43173;50.980;18.204;2023-07-31T07:11:31;4.70;;;2.20;;
57337;SDS011;43173;50.980;18.204;2023-07-31T07:13:56;5.40;;;1.90;;
57337;SDS011;43173;50.980;18.204;2023-07-31T07:16:22;5.30;;;2.20;;
57337;SDS011;43173;50.980;18.204;2023-07-31T07:18:47;5.40;;;1.80;;
57337;SDS011;43173;50.980;18.204;2023-07-31T07:21:13;6.30;;;1.90;;
57337;SDS011;43173;50.980;18.204;2023-07-31T07:23:42;3.20;;;1.80;;
57337;SDS011;43173;50.980;18.204;2023-07-31T07:26:08;5.10;;;1.70;;
57337;SDS011;43173;50.980;18.204;2023-07-31T07:28:34;4.10;;;1.70;;
57337;SDS011;43173;50.980;18.204;2023-07-31T07:30:59;6.10;;;1.70;;
57337;SDS011;43173;50.980;18.204;2023-07-31T07:33:25;4.80;;;1.80;;
57337;SDS011;43173;50.980;18.204;2023-07-31T07:35:51;7.00;;;1.80;;
57337;SDS011;43173;50.980;18.204;2023-07-31T07:38:16;8.40;;;2.00;;
57337;SDS011;43173;50.980;18.204;2023-07-31T07:40:44;3.60;;;1.90;;
57337;SDS011;43173;50.980;18.204;2023-07-31T07:43:12;6.30;;;1.70;;
57337;SDS011;43173;50.980;18.204;2023-07-31T07:45:38;4.40;;;1.90;;
57337;SDS011;43173;50.980;18.204;2023-07-31T07:48:03;4.20;;;1.70;;
57337;SDS011;43173;50.980;18.204;2023-07-31T07:50:29;5.50;;;1.50;;
57337;SDS011;43173;50.980;18.204;2023-07-31T07:52:54;5.80;;;1.80;;
57337;SDS011;43173;50.980;18.204;2023-07-31T07:55:20;3.60;;;1.70;;
57337;SDS011;43173;50.980;18.204;2023-07-31T07:57:46;3.20;;;1.50;;
57337;SDS011;43173;50.980;18.204;2023-07-31T08:00:12;5.00;;;1.70;;
57337;SDS011;43173;50.980;18.204;2023-07-31T08:02:38;5.50;;;1.50;;
57337;SDS011;43173;50.980;18.204;2023-07-31T08:05:04;4.00;;;1.90;;
57337;SDS011;43173;50.980;18.204;2023-07-31T08:07:31;4.90;;;1.70;;
57337;SDS011;43173;50.980;18.204;2023-07-31T08:09:56;3.60;;;1.80;;
57337;SDS011;43173;50.980;18.204;2023-07-31T08:12:22;5.00;;;1.60;;
57337;SDS011;43173;50.980;18.204;2023-07-31T08:14:48;3.30;;;1.60;;
57337;SDS011;43173;50.980;18.204;2023-07-31T08:17:14;3.70;;;1.70;;
57337;SDS011;43173;50.980;18.204;2023-07-31T08:19:39;4.50;;;1.60;;
57337;SDS011;43173;50.980;18.204;2023-07-31T08:22:05;4.10;;;1.70;;
57337;SDS011;43173;50.980;18.204;2023-07-31T08:24:31;5.10;;;1.60;;
57337;SDS011;43173;50.980;18.204;2023-07-31T08:26:57;8.50;;;2.10;;
57337;SDS011;43173;50.980;18.204;2023-07-31T08:29:22;3.10;;;1.50;;
57337;SDS011;43173;50.980;18.204;2023-07-31T08:31:49;4.50;;;1.50;;
57337;SDS011;43173;50.980;18.204;2023-07-31T08:34:14;2.70;;;1.30;;
57337;SDS011;43173;50.980;18.204;2023-07-31T08:36:40;4.40;;;1.60;;
57337;SDS011;43173;50.980;18.204;2023-07-31T08:39:05;4.00;;;1.40;;
57337;SDS011;43173;50.980;18.204;2023-07-31T08:41:31;6.70;;;1.70;;
57337;SDS011;43173;50.980;18.204;2023-07-31T08:44:03;4.50;;;1.60;;
57337;SDS011;43173;50.980;18.204;2023-07-31T08:46:29;5.80;;;1.60;;
57337;SDS011;43173;50.980;18.204;2023-07-31T08:48:55;3.90;;;1.40;;
57337;SDS011;43173;50.980;18.204;2023-07-31T08:51:20;4.80;;;1.60;;
57337;SDS011;43173;50.980;18.204;2023-07-31T08:53:46;3.10;;;1.50;;
57337;SDS011;43173;50.980;18.204;2023-07-31T08:56:12;3.20;;;1.60;;
57337;SDS011;43173;50.980;18.204;2023-07-31T08:58:40;3.70;;;1.50;;
57337;SDS011;43173;50.980;18.204;2023-07-31T09:01:05;5.80;;;1.50;;
57337;SDS011;43173;50.980;18.204;2023-07-31T09:03:33;5.00;;;1.70;;
57337;SDS011;43173;50.980;18.204;2023-07-31T09:05:59;3.90;;;1.50;;
57337;SDS011;43173;50.980;18.204;2023-07-31T09:08:25;4.50;;;1.60;;
57337;SDS011;43173;50.980;18.204;2023-07-31T09:10:52;3.10;;;1.50;;
57337;SDS011;43173;50.980;18.204;2023-07-31T09:13:18;5.10;;;1.20;;
57337;SDS011;43173;50.980;18.204;2023-07-31T09:15:44;4.30;;;1.40;;
57337;SDS011;43173;50.980;18.204;2023-07-31T09:18:10;4.50;;;1.40;;
57337;SDS011;43173;50.980;18.204;2023-07-31T09:20:36;5.80;;;1.50;;
57337;SDS011;43173;50.980;18.204;2023-07-31T09:23:07;3.30;;;1.20;;
57337;SDS011;43173;50.980;18.204;2023-07-31T09:25:34;2.70;;;1.10;;
57337;SDS011;43173;50.980;18.204;2023-07-31T09:28:03;5.90;;;1.40;;
57337;SDS011;43173;50.980;18.204;2023-07-31T09:33:03;3.00;;;1.40;;
57337;SDS011;43173;50.980;18.204;2023-07-31T09:35:34;4.50;;;1.00;;
57337;SDS011;43173;50.980;18.204;2023-07-31T09:38:05;4.40;;;1.40;;
57337;SDS011;43173;50.980;18.204;2023-07-31T09:40:32;5.80;;;1.30;;
57337;SDS011;43173;50.980;18.204;2023-07-31T09:43:01;6.90;;;1.50;;
57337;SDS011;43173;50.980;18.204;2023-07-31T09:45:28;4.50;;;1.40;;
57337;SDS011;43173;50.980;18.204;2023-07-31T09:47:54;3.50;;;1.40;;
57337;SDS011;43173;50.980;18.204;2023-07-31T09:50:21;4.10;;;1.50;;
57337;SDS011;43173;50.980;18.204;2023-07-31T09:52:48;5.10;;;1.60;;
57337;SDS011;43173;50.980;18.204;2023-07-31T09:55:14;3.10;;;1.20;;
57337;SDS011;43173;50.980;18.204;2023-07-31T09:57:41;3.60;;;1.30;;
57337;SDS011;43173;50.980;18.204;2023-07-31T10:00:13;6.00;;;0.90;;
57337;SDS011;43173;50.980;18.204;2023-07-31T10:02:41;3.30;;;1.60;;
57337;SDS011;43173;50.980;18.204;2023-07-31T10:05:07;5.30;;;1.20;;
57337;SDS011;43173;50.980;18.204;2023-07-31T10:07:36;3.80;;;1.00;;
57337;SDS011;43173;50.980;18.204;2023-07-31T10:10:04;3.60;;;1.60;;
57337;SDS011;43173;50.980;18.204;2023-07-31T10:12:31;3.30;;;1.20;;
57337;SDS011;43173;50.980;18.204;2023-07-31T10:15:00;1.90;;;1.10;;
57337;SDS011;43173;50.980;18.204;2023-07-31T10:17:26;4.00;;;1.50;;
57337;SDS011;43173;50.980;18.204;2023-07-31T10:19:52;7.80;;;1.60;;
57337;SDS011;43173;50.980;18.204;2023-07-31T10:22:19;3.30;;;1.20;;
57337;SDS011;43173;50.980;18.204;2023-07-31T10:24:45;2.30;;;1.10;;
57337;SDS011;43173;50.980;18.204;2023-07-31T10:27:11;4.20;;;1.10;;
57337;SDS011;43173;50.980;18.204;2023-07-31T10:29:38;6.20;;;1.40;;
57337;SDS011;43173;50.980;18.204;2023-07-31T10:32:04;3.50;;;1.30;;
57337;SDS011;43173;50.980;18.204;2023-07-31T10:34:34;5.90;;;1.30;;
57337;SDS011;43173;50.980;18.204;2023-07-31T10:42:36;4.80;;;1.20;;
57337;SDS011;43173;50.980;18.204;2023-07-31T10:45:04;5.80;;;1.30;;
57337;SDS011;43173;50.980;18.204;2023-07-31T10:50:15;4.20;;;1.30;;
57337;SDS011;43173;50.980;18.204;2023-07-31T10:52:46;4.20;;;1.00;;
57337;SDS011;43173;50.980;18.204;2023-07-31T10:55:38;4.20;;;1.70;;
57337;SDS011;43173;50.980;18.204;2023-07-31T10:58:07;4.20;;;1.40;;
57337;SDS011;43173;50.980;18.204;2023-07-31T11:00:37;4.40;;;1.40;;
57337;SDS011;43173;50.980;18.204;2023-07-31T11:03:07;4.50;;;1.00;;
57337;SDS011;43173;50.980;18.204;2023-07-31T11:05:42;2.20;;;1.20;;
57337;SDS011;43173;50.980;18.204;2023-07-31T11:21:45;4.10;;;1.30;;
57337;SDS011;43173;50.980;18.204;2023-07-31T11:24:12;3.50;;;1.20;;
57337;SDS011;43173;50.980;18.204;2023-07-31T11:26:38;3.30;;;1.60;;
57337;SDS011;43173;50.980;18.204;2023-07-31T11:29:10;3.10;;;1.60;;
57337;SDS011;43173;50.980;18.204;2023-07-31T11:31:41;2.20;;;1.10;;
57337;SDS011;43173;50.980;18.204;2023-07-31T11:34:11;3.20;;;1.40;;
57337;SDS011;43173;50.980;18.204;2023-07-31T11:36:36;4.10;;;1.20;;
57337;SDS011;43173;50.980;18.204;2023-07-31T11:39:06;3.70;;;1.30;;
57337;SDS011;43173;50.980;18.204;2023-07-31T11:41:33;1.60;;;1.20;;
57337;SDS011;43173;50.980;18.204;2023-07-31T11:44:01;6.10;;;1.60;;
57337;SDS011;43173;50.980;18.204;2023-07-31T11:46:29;3.10;;;1.60;;
57337;SDS011;43173;50.980;18.204;2023-07-31T11:48:59;2.90;;;1.40;;
57337;SDS011;43173;50.980;18.204;2023-07-31T11:51:25;3.50;;;1.30;;
57337;SDS011;43173;50.980;18.204;2023-07-31T11:54:01;3.00;;;1.40;;
57337;SDS011;43173;50.980;18.204;2023-07-31T11:56:27;3.70;;;1.40;;
57337;SDS011;43173;50.980;18.204;2023-07-31T11:58:55;2.40;;;1.00;;
57337;SDS011;43173;50.980;18.204;2023-07-31T12:01:23;2.10;;;1.00;;
57337;SDS011;43173;50.980;18.204;2023-07-31T12:03:50;2.40;;;1.30;;
57337;SDS011;43173;50.980;18.204;2023-07-31T12:06:15;1.80;;;1.00;;
57337;SDS011;43173;50.980;18.204;2023-07-31T12:08:41;1.80;;;1.30;;
57337;SDS011;43173;50.980;18.204;2023-07-31T12:11:07;1.90;;;1.30;;
57337;SDS011;43173;50.980;18.204;2023-07-31T12:13:35;2.30;;;1.30;;
57337;SDS011;43173;50.980;18.204;2023-07-31T12:16:01;2.90;;;1.50;;
57337;SDS011;43173;50.980;18.204;2023-07-31T12:18:29;2.10;;;1.20;;
57337;SDS011;43173;50.980;18.204;2023-07-31T12:20:59;3.10;;;1.40;;
57337;SDS011;43173;50.980;18.204;2023-07-31T12:23:30;3.30;;;1.60;;
57337;SDS011;43173;50.980;18.204;2023-07-31T12:28:46;1.40;;;1.30;;
57337;SDS011;43173;50.980;18.204;2023-07-31T12:31:13;4.20;;;1.80;;
57337;SDS011;43173;50.980;18.204;2023-07-31T12:33:40;3.80;;;1.80;;
57337;SDS011;43173;50.980;18.204;2023-07-31T12:36:10;4.50;;;1.60;;
57337;SDS011;43173;50.980;18.204;2023-07-31T12:41:03;2.60;;;1.60;;
57337;SDS011;43173;50.980;18.204;2023-07-31T12:43:29;3.20;;;1.50;;
57337;SDS011;43173;50.980;18.204;2023-07-31T12:45:55;2.40;;;1.60;;
57337;SDS011;43173;50.980;18.204;2023-07-31T12:48:22;1.90;;;1.50;;
57337;SDS011;43173;50.980;18.204;2023-07-31T12:50:47;3.60;;;1.50;;
57337;SDS011;43173;50.980;18.204;2023-07-31T12:53:14;2.70;;;1.40;;
57337;SDS011;43173;50.980;18.204;2023-07-31T12:55:40;3.80;;;1.70;;
57337;SDS011;43173;50.980;18.204;2023-07-31T12:58:06;2.50;;;1.40;;
57337;SDS011;43173;50.980;18.204;2023-07-31T13:00:32;2.70;;;1.30;;
57337;SDS011;43173;50.980;18.204;2023-07-31T13:02:58;2.10;;;1.40;;
57337;SDS011;43173;50.980;18.204;2023-07-31T13:05:25;2.40;;;1.60;;
57337;SDS011;43173;50.980;18.204;2023-07-31T13:07:52;2.20;;;1.60;;
57337;SDS011;43173;50.980;18.204;2023-07-31T13:10:17;3.20;;;2.00;;
57337;SDS011;43173;50.980;18.204;2023-07-31T13:12:43;3.10;;;1.50;;
57337;SDS011;43173;50.980;18.204;2023-07-31T13:15:08;5.00;;;1.60;;
57337;SDS011;43173;50.980;18.204;2023-07-31T13:17:35;3.10;;;1.70;;
57337;SDS011;43173;50.980;18.204;2023-07-31T13:20:00;2.30;;;1.60;;
57337;SDS011;43173;50.980;18.204;2023-07-31T13:22:26;2.40;;;1.40;;
57337;SDS011;43173;50.980;18.204;2023-07-31T13:24:52;2.80;;;1.40;;
57337;SDS011;43173;50.980;18.204;2023-07-31T13:27:18;3.10;;;1.60;;
57337;SDS011;43173;50.980;18.204;2023-07-31T13:29:46;1.90;;;1.30;;
57337;SDS011;43173;50.980;18.204;2023-07-31T13:32:11;2.60;;;1.60;;
57337;SDS011;43173;50.980;18.204;2023-07-31T13:34:37;3.00;;;1.70;;
57337;SDS011;43173;50.980;18.204;2023-07-31T13:37:03;2.70;;;1.50;;
57337;SDS011;43173;50.980;18.204;2023-07-31T13:39:31;1.60;;;1.30;;
57337;SDS011;43173;50.980;18.204;2023-07-31T13:41:58;3.00;;;1.60;;
57337;SDS011;43173;50.980;18.204;2023-07-31T13:44:25;4.10;;;1.50;;
57337;SDS011;43173;50.980;18.204;2023-07-31T13:46:51;3.20;;;1.50;;
57337;SDS011;43173;50.980;18.204;2023-07-31T13:49:16;3.40;;;1.90;;
57337;SDS011;43173;50.980;18.204;2023-07-31T13:51:42;4.30;;;1.80;;
57337;SDS011;43173;50.980;18.204;2023-07-31T13:54:08;2.00;;;1.60;;
57337;SDS011;43173;50.980;18.204;2023-07-31T14:38:19;4.80;;;1.90;;
57337;SDS011;43173;50.980;18.204;2023-07-31T14:40:44;2.60;;;2.20;;
57337;SDS011;43173;50.980;18.204;2023-07-31T14:43:10;4.50;;;2.10;;
57337;SDS011;43173;50.980;18.204;2023-07-31T14:45:36;3.40;;;2.20;;
57337;SDS011;43173;50.980;18.204;2023-07-31T14:48:02;3.40;;;2.00;;
57337;SDS011;43173;50.980;18.204;2023-07-31T14:50:28;3.30;;;2.00;;
57337;SDS011;43173;50.980;18.204;2023-07-31T14:52:53;3.70;;;1.80;;
57337;SDS011;43173;50.980;18.204;2023-07-31T14:55:19;5.10;;;2.40;;
57337;SDS011;43173;50.980;18.204;2023-07-31T15:09:24;3.30;;;2.00;;
57337;SDS011;43173;50.980;18.204;2023-07-31T15:11:49;3.70;;;2.40;;
57337;SDS011;43173;50.980;18.204;2023-07-31T15:14:15;7.10;;;2.60;;
57337;SDS011;43173;50.980;18.204;2023-07-31T15:16:41;3.70;;;2.50;;
57337;SDS011;43173;50.980;18.204;2023-07-31T15:19:06;4.00;;;2.50;;
57337;SDS011;43173;50.980;18.204;2023-07-31T15:21:33;2.90;;;2.30;;
57337;SDS011;43173;50.980;18.204;2023-07-31T15:23:58;6.20;;;2.50;;
57337;SDS011;43173;50.980;18.204;2023-07-31T15:26:24;4.80;;;2.80;;
57337;SDS011;43173;50.980;18.204;2023-07-31T15:28:52;2.30;;;2.00;;
57337;SDS011;43173;50.980;18.204;2023-07-31T15:31:23;3.70;;;2.80;;
57337;SDS011;43173;50.980;18.204;2023-07-31T15:33:49;4.00;;;2.60;;
57337;SDS011;43173;50.980;18.204;2023-07-31T15:36:14;3.30;;;2.40;;
57337;SDS011;43173;50.980;18.204;2023-07-31T15:38:42;3.40;;;2.30;;
57337;SDS011;43173;50.980;18.204;2023-07-31T15:41:08;5.00;;;2.80;;
57337;SDS011;43173;50.980;18.204;2023-07-31T15:43:33;3.00;;;2.40;;
57337;SDS011;43173;50.980;18.204;2023-07-31T15:45:59;4.10;;;2.60;;
57337;SDS011;43173;50.980;18.204;2023-07-31T15:48:25;3.80;;;2.20;;
57337;SDS011;43173;50.980;18.204;2023-07-31T15:50:50;5.80;;;2.30;;
57337;SDS011;43173;50.980;18.204;2023-07-31T15:53:16;4.00;;;2.70;;
57337;SDS011;43173;50.980;18.204;2023-07-31T15:55:42;2.80;;;2.40;;
57337;SDS011;43173;50.980;18.204;2023-07-31T15:58:08;3.20;;;2.10;;
57337;SDS011;43173;50.980;18.204;2023-07-31T16:00:33;3.00;;;2.30;;
57337;SDS011;43173;50.980;18.204;2023-07-31T16:02:59;3.30;;;2.20;;
57337;SDS011;43173;50.980;18.204;2023-07-31T16:05:25;4.90;;;1.90;;
57337;SDS011;43173;50.980;18.204;2023-07-31T16:07:50;3.70;;;2.20;;
57337;SDS011;43173;50.980;18.204;2023-07-31T16:10:16;3.20;;;2.20;;